sensor_id;sensor_type;location;lat;lon;timestamp;P1;durP1;ratioP1;P2;durP2;ratioP2
211;SDS011;16228;48.800;9.002;2022-12-07T00:01:40;11.53;;;9.87;;
211;SDS011;16228;48.800;9.002;2022-12-07T00:04:09;8.23;;;7.43;;
211;SDS011;16228;48.800;9.002;2022-12-07T00:06:40;9.43;;;8.53;;
211;SDS011;16228;48.800;9.002;2022-12-07T00:09:10;11.63;;;8.83;;
211;SDS011;16228;48.800;9.002;2022-12-07T00:11:39;10.90;;;9.60;;
211;SDS011;16228;48.800;9.002;2022-12-07T00:14:08;10.77;;;9.43;;
211;SDS011;16228;48.800;9.002;2022-12-07T00:16:38;11.07;;;9.63;;
211;SDS011;16228;48.800;9.002;2022-12-07T00:19:06;10.20;;;8.57;;
211;SDS011;16228;48.800;9.002;2022-12-07T00:21:34;9.73;;;8.73;;
211;SDS011;16228;48.800;9.002;2022-12-07T00:24:02;10.90;;;8.87;;
211;SDS011;16228;48.800;9.002;2022-12-07T00:26:31;9.57;;;8.53;;
211;SDS011;16228;48.800;9.002;2022-12-07T00:29:01;9.20;;;7.83;;
211;SDS011;16228;48.800;9.002;2022-12-07T00:31:30;10.23;;;9.23;;
211;SDS011;16228;48.800;9.002;2022-12-07T00:34:00;10.63;;;8.63;;
211;SDS011;16228;48.800;9.002;2022-12-07T00:36:27;10.27;;;9.17;;
211;SDS011;16228;48.800;9.002;2022-12-07T00:38:55;10.07;;;9.03;;
211;SDS011;16228;48.800;9.002;2022-12-07T00:41:25;10.13;;;8.93;;
211;SDS011;16228;48.800;9.002;2022-12-07T00:43:53;11.27;;;8.80;;
211;SDS011;16228;48.800;9.002;2022-12-07T00:46:23;10.30;;;9.30;;
211;SDS011;16228;48.800;9.002;2022-12-07T00:48:51;11.87;;;9.73;;
211;SDS011;16228;48.800;9.002;2022-12-07T00:51:19;10.93;;;9.23;;
211;SDS011;16228;48.800;9.002;2022-12-07T00:53:48;11.13;;;8.13;;
211;SDS011;16228;48.800;9.002;2022-12-07T00:56:16;11.27;;;9.20;;
211;SDS011;16228;48.800;9.002;2022-12-07T00:58:44;10.90;;;9.60;;
211;SDS011;16228;48.800;9.002;2022-12-07T01:01:16;11.53;;;9.67;;
211;SDS011;16228;48.800;9.002;2022-12-07T01:03:45;12.73;;;11.03;;
211;SDS011;16228;48.800;9.002;2022-12-07T01:06:13;15.03;;;11.27;;
211;SDS011;16228;48.800;9.002;2022-12-07T01:08:41;11.93;;;9.73;;
211;SDS011;16228;48.800;9.002;2022-12-07T01:11:09;11.63;;;9.17;;
211;SDS011;16228;48.800;9.002;2022-12-07T01:13:39;11.17;;;9.93;;
211;SDS011;16228;48.800;9.002;2022-12-07T01:16:06;10.27;;;9.27;;
211;SDS011;16228;48.800;9.002;2022-12-07T01:18:34;11.87;;;8.67;;
211;SDS011;16228;48.800;9.002;2022-12-07T01:21:04;9.30;;;7.93;;
211;SDS011;16228;48.800;9.002;2022-12-07T01:23:33;11.67;;;9.50;;
211;SDS011;16228;48.800;9.002;2022-12-07T01:26:01;9.23;;;8.33;;
211;SDS011;16228;48.800;9.002;2022-12-07T01:28:30;9.73;;;8.63;;
211;SDS011;16228;48.800;9.002;2022-12-07T01:30:57;12.40;;;10.83;;
211;SDS011;16228;48.800;9.002;2022-12-07T01:33:26;11.07;;;9.90;;
211;SDS011;16228;48.800;9.002;2022-12-07T01:35:54;11.63;;;9.60;;
211;SDS011;16228;48.800;9.002;2022-12-07T01:38:28;12.07;;;10.60;;
211;SDS011;16228;48.800;9.002;2022-12-07T01:40:56;12.43;;;10.93;;
211;SDS011;16228;48.800;9.002;2022-12-07T01:43:24;11.00;;;9.80;;
211;SDS011;16228;48.800;9.002;2022-12-07T01:45:52;11.50;;;10.07;;
211;SDS011;16228;48.800;9.002;2022-12-07T01:48:20;11.40;;;10.13;;
211;SDS011;16228;48.800;9.002;2022-12-07T01:50:50;12.27;;;10.97;;
211;SDS011;16228;48.800;9.002;2022-12-07T01:53:19;13.57;;;11.83;;
211;SDS011;16228;48.800;9.002;2022-12-07T01:55:52;13.20;;;11.40;;
211;SDS011;16228;48.800;9.002;2022-12-07T01:58:20;12.77;;;11.43;;
211;SDS011;16228;48.800;9.002;2022-12-07T02:00:47;16.50;;;12.17;;
211;SDS011;16228;48.800;9.002;2022-12-07T02:03:16;14.60;;;11.87;;
211;SDS011;16228;48.800;9.002;2022-12-07T02:05:46;11.57;;;10.37;;
211;SDS011;16228;48.800;9.002;2022-12-07T02:08:14;13.37;;;11.60;;
211;SDS011;16228;48.800;9.002;2022-12-07T02:10:42;11.07;;;9.70;;
211;SDS011;16228;48.800;9.002;2022-12-07T02:13:11;11.50;;;10.30;;
211;SDS011;16228;48.800;9.002;2022-12-07T02:15:45;11.07;;;9.50;;
211;SDS011;16228;48.800;9.002;2022-12-07T02:18:27;11.00;;;9.90;;
211;SDS011;16228;48.800;9.002;2022-12-07T02:21:02;14.33;;;10.87;;
211;SDS011;16228;48.800;9.002;2022-12-07T02:23:40;15.33;;;11.37;;
211;SDS011;16228;48.800;9.002;2022-12-07T02:26:23;13.50;;;11.20;;
211;SDS011;16228;48.800;9.002;2022-12-07T02:29:14;13.40;;;11.13;;
211;SDS011;16228;48.800;9.002;2022-12-07T02:31:49;13.20;;;10.87;;
211;SDS011;16228;48.800;9.002;2022-12-07T02:34:33;12.03;;;10.73;;
211;SDS011;16228;48.800;9.002;2022-12-07T02:37:08;13.47;;;10.80;;
211;SDS011;16228;48.800;9.002;2022-12-07T02:39:40;12.43;;;11.13;;
211;SDS011;16228;48.800;9.002;2022-12-07T02:42:12;15.57;;;12.93;;
211;SDS011;16228;48.800;9.002;2022-12-07T02:44:43;15.57;;;12.57;;
211;SDS011;16228;48.800;9.002;2022-12-07T02:47:13;11.90;;;10.67;;
211;SDS011;16228;48.800;9.002;2022-12-07T02:49:43;14.27;;;12.03;;
211;SDS011;16228;48.800;9.002;2022-12-07T02:52:10;15.40;;;13.23;;
211;SDS011;16228;48.800;9.002;2022-12-07T02:54:37;11.77;;;10.53;;
211;SDS011;16228;48.800;9.002;2022-12-07T02:57:08;13.57;;;10.57;;
211;SDS011;16228;48.800;9.002;2022-12-07T02:59:53;11.10;;;9.93;;
211;SDS011;16228;48.800;9.002;2022-12-07T03:02:30;15.00;;;11.43;;
211;SDS011;16228;48.800;9.002;2022-12-07T03:05:09;13.97;;;11.17;;
211;SDS011;16228;48.800;9.002;2022-12-07T03:07:46;11.80;;;10.47;;
211;SDS011;16228;48.800;9.002;2022-12-07T03:10:22;11.40;;;10.23;;
211;SDS011;16228;48.800;9.002;2022-12-07T03:13:02;13.80;;;11.63;;
211;SDS011;16228;48.800;9.002;2022-12-07T03:15:35;11.93;;;10.63;;
211;SDS011;16228;48.800;9.002;2022-12-07T03:18:09;13.37;;;11.93;;
211;SDS011;16228;48.800;9.002;2022-12-07T03:20:38;12.40;;;11.17;;
211;SDS011;16228;48.800;9.002;2022-12-07T03:23:08;13.07;;;11.53;;
211;SDS011;16228;48.800;9.002;2022-12-07T03:25:39;11.77;;;10.40;;
211;SDS011;16228;48.800;9.002;2022-12-07T03:28:07;13.00;;;11.57;;
211;SDS011;16228;48.800;9.002;2022-12-07T03:30:39;14.13;;;11.80;;
211;SDS011;16228;48.800;9.002;2022-12-07T03:33:11;12.03;;;10.73;;
211;SDS011;16228;48.800;9.002;2022-12-07T03:35:42;14.53;;;11.63;;
211;SDS011;16228;48.800;9.002;2022-12-07T03:38:13;13.83;;;11.87;;
211;SDS011;16228;48.800;9.002;2022-12-07T03:40:44;15.53;;;12.10;;
211;SDS011;16228;48.800;9.002;2022-12-07T03:43:16;14.10;;;11.53;;
211;SDS011;16228;48.800;9.002;2022-12-07T03:45:48;11.83;;;10.60;;
211;SDS011;16228;48.800;9.002;2022-12-07T03:48:27;12.60;;;11.30;;
211;SDS011;16228;48.800;9.002;2022-12-07T03:51:00;12.23;;;11.03;;
211;SDS011;16228;48.800;9.002;2022-12-07T03:53:35;12.17;;;10.23;;
211;SDS011;16228;48.800;9.002;2022-12-07T03:56:06;13.50;;;12.10;;
211;SDS011;16228;48.800;9.002;2022-12-07T03:58:35;14.23;;;12.83;;
211;SDS011;16228;48.800;9.002;2022-12-07T04:01:04;14.43;;;12.93;;
211;SDS011;16228;48.800;9.002;2022-12-07T04:03:31;17.43;;;14.20;;
211;SDS011;16228;48.800;9.002;2022-12-07T04:05:58;13.47;;;12.17;;
211;SDS011;16228;48.800;9.002;2022-12-07T04:08:26;15.33;;;13.73;;
211;SDS011;16228;48.800;9.002;2022-12-07T04:10:53;16.70;;;14.10;;
211;SDS011;16228;48.800;9.002;2022-12-07T04:13:20;13.50;;;12.13;;
211;SDS011;16228;48.800;9.002;2022-12-07T04:15:47;15.10;;;13.50;;
211;SDS011;16228;48.800;9.002;2022-12-07T04:18:15;14.83;;;13.13;;
211;SDS011;16228;48.800;9.002;2022-12-07T04:20:42;15.30;;;13.70;;
211;SDS011;16228;48.800;9.002;2022-12-07T04:23:09;16.10;;;13.77;;
211;SDS011;16228;48.800;9.002;2022-12-07T04:25:36;12.37;;;11.17;;
211;SDS011;16228;48.800;9.002;2022-12-07T04:28:03;16.10;;;13.80;;
211;SDS011;16228;48.800;9.002;2022-12-07T04:30:30;15.67;;;13.37;;
211;SDS011;16228;48.800;9.002;2022-12-07T04:32:57;19.23;;;14.87;;
211;SDS011;16228;48.800;9.002;2022-12-07T04:35:25;17.37;;;14.37;;
211;SDS011;16228;48.800;9.002;2022-12-07T04:37:52;12.50;;;10.53;;
211;SDS011;16228;48.800;9.002;2022-12-07T04:40:19;12.23;;;10.90;;
211;SDS011;16228;48.800;9.002;2022-12-07T04:42:46;11.90;;;9.00;;
211;SDS011;16228;48.800;9.002;2022-12-07T04:45:13;12.13;;;8.80;;
211;SDS011;16228;48.800;9.002;2022-12-07T04:47:40;8.50;;;6.80;;
211;SDS011;16228;48.800;9.002;2022-12-07T04:50:09;8.83;;;7.20;;
211;SDS011;16228;48.800;9.002;2022-12-07T04:52:38;9.13;;;8.23;;
211;SDS011;16228;48.800;9.002;2022-12-07T04:55:05;9.57;;;8.47;;
211;SDS011;16228;48.800;9.002;2022-12-07T04:57:32;11.53;;;9.63;;
211;SDS011;16228;48.800;9.002;2022-12-07T04:59:59;9.87;;;8.87;;
211;SDS011;16228;48.800;9.002;2022-12-07T05:02:26;10.90;;;9.47;;
211;SDS011;16228;48.800;9.002;2022-12-07T05:04:53;11.63;;;10.10;;
211;SDS011;16228;48.800;9.002;2022-12-07T05:07:20;11.30;;;10.13;;
211;SDS011;16228;48.800;9.002;2022-12-07T05:09:48;10.93;;;9.70;;
211;SDS011;16228;48.800;9.002;2022-12-07T05:12:15;10.57;;;9.37;;
211;SDS011;16228;48.800;9.002;2022-12-07T05:14:42;12.40;;;8.97;;
211;SDS011;16228;48.800;9.002;2022-12-07T05:17:09;14.67;;;10.10;;
211;SDS011;16228;48.800;9.002;2022-12-07T05:19:37;10.60;;;9.50;;
211;SDS011;16228;48.800;9.002;2022-12-07T05:22:04;10.97;;;9.77;;
211;SDS011;16228;48.800;9.002;2022-12-07T05:24:31;13.10;;;11.50;;
211;SDS011;16228;48.800;9.002;2022-12-07T05:26:59;11.63;;;10.50;;
211;SDS011;16228;48.800;9.002;2022-12-07T05:29:26;12.27;;;10.13;;
211;SDS011;16228;48.800;9.002;2022-12-07T05:31:53;11.73;;;10.60;;
211;SDS011;16228;48.800;9.002;2022-12-07T05:34:20;13.93;;;12.37;;
211;SDS011;16228;48.800;9.002;2022-12-07T05:36:47;11.63;;;10.63;;
211;SDS011;16228;48.800;9.002;2022-12-07T05:39:15;13.10;;;11.77;;
211;SDS011;16228;48.800;9.002;2022-12-07T05:41:43;13.37;;;11.50;;
211;SDS011;16228;48.800;9.002;2022-12-07T05:44:29;13.27;;;11.87;;
211;SDS011;16228;48.800;9.002;2022-12-07T05:46:56;12.77;;;11.47;;
211;SDS011;16228;48.800;9.002;2022-12-07T05:49:23;14.40;;;12.17;;
211;SDS011;16228;48.800;9.002;2022-12-07T05:51:50;14.23;;;12.83;;
211;SDS011;16228;48.800;9.002;2022-12-07T05:54:17;15.63;;;14.07;;
211;SDS011;16228;48.800;9.002;2022-12-07T05:56:44;13.27;;;12.07;;
211;SDS011;16228;48.800;9.002;2022-12-07T05:59:11;14.17;;;12.67;;
211;SDS011;16228;48.800;9.002;2022-12-07T06:01:52;12.40;;;11.10;;
211;SDS011;16228;48.800;9.002;2022-12-07T06:04:20;14.90;;;13.40;;
211;SDS011;16228;48.800;9.002;2022-12-07T06:06:48;14.30;;;12.90;;
211;SDS011;16228;48.800;9.002;2022-12-07T06:09:16;14.03;;;12.73;;
211;SDS011;16228;48.800;9.002;2022-12-07T06:11:44;15.43;;;13.63;;
211;SDS011;16228;48.800;9.002;2022-12-07T06:14:29;13.43;;;12.03;;
211;SDS011;16228;48.800;9.002;2022-12-07T06:16:58;14.30;;;12.87;;
211;SDS011;16228;48.800;9.002;2022-12-07T06:19:25;13.37;;;12.03;;
211;SDS011;16228;48.800;9.002;2022-12-07T06:21:53;12.73;;;11.53;;
211;SDS011;16228;48.800;9.002;2022-12-07T06:24:20;13.97;;;12.57;;
211;SDS011;16228;48.800;9.002;2022-12-07T06:26:47;14.57;;;11.80;;
211;SDS011;16228;48.800;9.002;2022-12-07T06:29:14;13.37;;;10.33;;
211;SDS011;16228;48.800;9.002;2022-12-07T06:31:43;15.33;;;12.07;;
211;SDS011;16228;48.800;9.002;2022-12-07T06:34:12;15.90;;;14.17;;
211;SDS011;16228;48.800;9.002;2022-12-07T06:36:40;18.13;;;14.37;;
211;SDS011;16228;48.800;9.002;2022-12-07T06:39:07;12.90;;;11.50;;
211;SDS011;16228;48.800;9.002;2022-12-07T06:41:35;13.57;;;11.20;;
211;SDS011;16228;48.800;9.002;2022-12-07T06:44:02;10.77;;;9.80;;
211;SDS011;16228;48.800;9.002;2022-12-07T06:46:30;9.60;;;8.20;;
211;SDS011;16228;48.800;9.002;2022-12-07T06:48:57;9.40;;;8.43;;
211;SDS011;16228;48.800;9.002;2022-12-07T06:51:25;11.93;;;9.27;;
211;SDS011;16228;48.800;9.002;2022-12-07T06:53:53;10.37;;;9.27;;
211;SDS011;16228;48.800;9.002;2022-12-07T06:56:20;10.57;;;7.70;;
211;SDS011;16228;48.800;9.002;2022-12-07T06:58:48;8.63;;;7.73;;
211;SDS011;16228;48.800;9.002;2022-12-07T07:01:16;9.20;;;8.23;;
211;SDS011;16228;48.800;9.002;2022-12-07T07:03:44;9.27;;;7.30;;
211;SDS011;16228;48.800;9.002;2022-12-07T07:06:12;8.53;;;7.50;;
211;SDS011;16228;48.800;9.002;2022-12-07T07:08:41;7.87;;;6.63;;
211;SDS011;16228;48.800;9.002;2022-12-07T07:11:08;9.33;;;7.33;;
211;SDS011;16228;48.800;9.002;2022-12-07T07:13:35;8.03;;;7.23;;
211;SDS011;16228;48.800;9.002;2022-12-07T07:16:03;7.83;;;7.03;;
211;SDS011;16228;48.800;9.002;2022-12-07T07:18:30;7.73;;;6.90;;
211;SDS011;16228;48.800;9.002;2022-12-07T07:20:57;7.03;;;6.33;;
211;SDS011;16228;48.800;9.002;2022-12-07T07:23:24;8.00;;;7.17;;
211;SDS011;16228;48.800;9.002;2022-12-07T07:25:53;8.23;;;6.53;;
211;SDS011;16228;48.800;9.002;2022-12-07T07:28:20;7.73;;;6.23;;
211;SDS011;16228;48.800;9.002;2022-12-07T07:30:47;7.93;;;7.13;;
211;SDS011;16228;48.800;9.002;2022-12-07T07:33:14;9.53;;;7.30;;
211;SDS011;16228;48.800;9.002;2022-12-07T07:35:41;8.73;;;6.13;;
211;SDS011;16228;48.800;9.002;2022-12-07T07:38:08;8.83;;;6.87;;
211;SDS011;16228;48.800;9.002;2022-12-07T07:40:35;7.10;;;5.90;;
211;SDS011;16228;48.800;9.002;2022-12-07T07:43:03;14.57;;;7.57;;
211;SDS011;16228;48.800;9.002;2022-12-07T07:45:31;12.23;;;6.17;;
211;SDS011;16228;48.800;9.002;2022-12-07T07:47:58;10.97;;;7.13;;
211;SDS011;16228;48.800;9.002;2022-12-07T07:50:25;7.10;;;5.57;;
211;SDS011;16228;48.800;9.002;2022-12-07T07:52:52;6.10;;;5.27;;
211;SDS011;16228;48.800;9.002;2022-12-07T07:55:19;6.63;;;5.93;;
211;SDS011;16228;48.800;9.002;2022-12-07T07:57:46;6.23;;;5.63;;
211;SDS011;16228;48.800;9.002;2022-12-07T08:00:15;7.03;;;5.57;;
211;SDS011;16228;48.800;9.002;2022-12-07T08:02:43;7.33;;;5.20;;
211;SDS011;16228;48.800;9.002;2022-12-07T08:05:11;9.50;;;6.10;;
211;SDS011;16228;48.800;9.002;2022-12-07T08:07:39;6.53;;;5.93;;
211;SDS011;16228;48.800;9.002;2022-12-07T08:10:07;7.13;;;5.73;;
211;SDS011;16228;48.800;9.002;2022-12-07T08:12:36;10.47;;;6.30;;
211;SDS011;16228;48.800;9.002;2022-12-07T08:15:26;8.00;;;5.90;;
211;SDS011;16228;48.800;9.002;2022-12-07T08:17:53;6.40;;;5.77;;
211;SDS011;16228;48.800;9.002;2022-12-07T08:20:20;6.83;;;5.10;;
211;SDS011;16228;48.800;9.002;2022-12-07T08:22:47;6.73;;;5.30;;
211;SDS011;16228;48.800;9.002;2022-12-07T08:25:14;7.20;;;5.37;;
211;SDS011;16228;48.800;9.002;2022-12-07T08:27:41;5.97;;;5.30;;
211;SDS011;16228;48.800;9.002;2022-12-07T08:30:08;6.87;;;5.07;;
211;SDS011;16228;48.800;9.002;2022-12-07T08:32:37;6.83;;;5.70;;
211;SDS011;16228;48.800;9.002;2022-12-07T08:35:05;7.47;;;4.67;;
211;SDS011;16228;48.800;9.002;2022-12-07T08:37:33;8.43;;;5.30;;
211;SDS011;16228;48.800;9.002;2022-12-07T08:40:00;5.23;;;4.70;;
211;SDS011;16228;48.800;9.002;2022-12-07T08:42:27;5.30;;;4.67;;
211;SDS011;16228;48.800;9.002;2022-12-07T08:44:55;6.77;;;4.93;;
211;SDS011;16228;48.800;9.002;2022-12-07T08:47:23;5.67;;;4.20;;
211;SDS011;16228;48.800;9.002;2022-12-07T08:49:52;6.10;;;5.13;;
211;SDS011;16228;48.800;9.002;2022-12-07T08:52:20;6.07;;;4.50;;
211;SDS011;16228;48.800;9.002;2022-12-07T08:54:47;4.93;;;3.97;;
211;SDS011;16228;48.800;9.002;2022-12-07T08:57:15;6.97;;;4.47;;
211;SDS011;16228;48.800;9.002;2022-12-07T08:59:42;4.20;;;3.80;;
211;SDS011;16228;48.800;9.002;2022-12-07T09:02:09;5.47;;;4.27;;
211;SDS011;16228;48.800;9.002;2022-12-07T09:04:36;4.93;;;4.23;;
211;SDS011;16228;48.800;9.002;2022-12-07T09:07:04;5.20;;;3.43;;
211;SDS011;16228;48.800;9.002;2022-12-07T09:09:31;5.97;;;3.87;;
211;SDS011;16228;48.800;9.002;2022-12-07T09:11:59;5.00;;;4.20;;
211;SDS011;16228;48.800;9.002;2022-12-07T09:14:26;4.20;;;3.73;;
211;SDS011;16228;48.800;9.002;2022-12-07T09:16:53;4.67;;;3.80;;
211;SDS011;16228;48.800;9.002;2022-12-07T09:19:20;5.63;;;4.07;;
211;SDS011;16228;48.800;9.002;2022-12-07T09:21:47;3.90;;;3.50;;
211;SDS011;16228;48.800;9.002;2022-12-07T09:24:15;4.50;;;3.77;;
211;SDS011;16228;48.800;9.002;2022-12-07T09:26:42;4.30;;;3.90;;
211;SDS011;16228;48.800;9.002;2022-12-07T09:29:09;6.03;;;3.40;;
211;SDS011;16228;48.800;9.002;2022-12-07T09:31:36;4.43;;;3.70;;
211;SDS011;16228;48.800;9.002;2022-12-07T09:34:04;3.97;;;3.20;;
211;SDS011;16228;48.800;9.002;2022-12-07T09:36:32;4.33;;;3.37;;
211;SDS011;16228;48.800;9.002;2022-12-07T09:38:59;4.67;;;3.50;;
211;SDS011;16228;48.800;9.002;2022-12-07T09:41:29;4.27;;;3.00;;
211;SDS011;16228;48.800;9.002;2022-12-07T09:43:59;4.03;;;3.43;;
211;SDS011;16228;48.800;9.002;2022-12-07T09:46:30;4.17;;;3.40;;
211;SDS011;16228;48.800;9.002;2022-12-07T09:49:02;4.87;;;3.93;;
211;SDS011;16228;48.800;9.002;2022-12-07T09:51:30;6.27;;;3.60;;
211;SDS011;16228;48.800;9.002;2022-12-07T09:53:58;4.63;;;4.10;;
211;SDS011;16228;48.800;9.002;2022-12-07T09:56:28;4.23;;;3.80;;
211;SDS011;16228;48.800;9.002;2022-12-07T09:58:58;4.70;;;3.13;;
211;SDS011;16228;48.800;9.002;2022-12-07T10:01:27;4.03;;;3.47;;
211;SDS011;16228;48.800;9.002;2022-12-07T10:03:58;3.10;;;2.80;;
211;SDS011;16228;48.800;9.002;2022-12-07T10:06:32;3.67;;;3.30;;
211;SDS011;16228;48.800;9.002;2022-12-07T10:08:59;3.77;;;3.10;;
211;SDS011;16228;48.800;9.002;2022-12-07T10:11:26;3.73;;;3.07;;
211;SDS011;16228;48.800;9.002;2022-12-07T10:13:55;4.07;;;3.50;;
211;SDS011;16228;48.800;9.002;2022-12-07T10:16:38;4.87;;;3.93;;
211;SDS011;16228;48.800;9.002;2022-12-07T10:19:22;3.63;;;3.20;;
211;SDS011;16228;48.800;9.002;2022-12-07T10:22:00;4.33;;;3.73;;
211;SDS011;16228;48.800;9.002;2022-12-07T10:24:38;4.23;;;3.50;;
211;SDS011;16228;48.800;9.002;2022-12-07T10:27:16;3.43;;;3.13;;
211;SDS011;16228;48.800;9.002;2022-12-07T10:29:48;4.27;;;3.73;;
211;SDS011;16228;48.800;9.002;2022-12-07T10:32:28;5.23;;;4.33;;
211;SDS011;16228;48.800;9.002;2022-12-07T10:35:18;4.00;;;3.20;;
211;SDS011;16228;48.800;9.002;2022-12-07T10:37:49;5.33;;;3.13;;
211;SDS011;16228;48.800;9.002;2022-12-07T10:40:24;3.80;;;2.90;;
211;SDS011;16228;48.800;9.002;2022-12-07T10:43:00;3.50;;;3.20;;
211;SDS011;16228;48.800;9.002;2022-12-07T10:45:34;3.17;;;2.77;;
211;SDS011;16228;48.800;9.002;2022-12-07T10:48:08;2.70;;;2.30;;
211;SDS011;16228;48.800;9.002;2022-12-07T10:50:46;2.40;;;2.20;;
211;SDS011;16228;48.800;9.002;2022-12-07T10:56:19;2.40;;;2.20;;
211;SDS011;16228;48.800;9.002;2022-12-07T10:58:59;2.40;;;2.10;;
211;SDS011;16228;48.800;9.002;2022-12-07T11:01:41;2.20;;;1.93;;
211;SDS011;16228;48.800;9.002;2022-12-07T11:04:21;2.50;;;2.20;;
211;SDS011;16228;48.800;9.002;2022-12-07T11:06:58;2.17;;;1.97;;
211;SDS011;16228;48.800;9.002;2022-12-07T11:12:31;2.20;;;1.67;;
211;SDS011;16228;48.800;9.002;2022-12-07T11:15:12;2.07;;;1.83;;
211;SDS011;16228;48.800;9.002;2022-12-07T11:17:47;2.63;;;1.70;;
211;SDS011;16228;48.800;9.002;2022-12-07T11:20:28;2.17;;;1.80;;
211;SDS011;16228;48.800;9.002;2022-12-07T11:23:06;1.70;;;1.60;;
211;SDS011;16228;48.800;9.002;2022-12-07T11:25:41;3.27;;;2.23;;
211;SDS011;16228;48.800;9.002;2022-12-07T11:28:18;2.23;;;2.03;;
211;SDS011;16228;48.800;9.002;2022-12-07T11:30:57;2.63;;;2.20;;
211;SDS011;16228;48.800;9.002;2022-12-07T11:33:37;3.70;;;2.40;;
211;SDS011;16228;48.800;9.002;2022-12-07T11:36:14;2.83;;;2.60;;
211;SDS011;16228;48.800;9.002;2022-12-07T11:38:55;3.43;;;2.63;;
211;SDS011;16228;48.800;9.002;2022-12-07T11:41:27;3.40;;;3.10;;
211;SDS011;16228;48.800;9.002;2022-12-07T11:43:58;3.80;;;3.50;;
211;SDS011;16228;48.800;9.002;2022-12-07T11:46:35;4.70;;;3.47;;
211;SDS011;16228;48.800;9.002;2022-12-07T11:49:13;5.77;;;4.90;;
211;SDS011;16228;48.800;9.002;2022-12-07T11:51:46;6.17;;;5.10;;
211;SDS011;16228;48.800;9.002;2022-12-07T11:54:21;5.73;;;4.90;;
211;SDS011;16228;48.800;9.002;2022-12-07T11:56:53;12.10;;;7.77;;
211;SDS011;16228;48.800;9.002;2022-12-07T11:59:23;6.43;;;5.83;;
211;SDS011;16228;48.800;9.002;2022-12-07T12:01:58;5.70;;;4.93;;
211;SDS011;16228;48.800;9.002;2022-12-07T12:04:46;6.00;;;4.83;;
211;SDS011;16228;48.800;9.002;2022-12-07T12:07:21;5.33;;;4.70;;
211;SDS011;16228;48.800;9.002;2022-12-07T12:09:51;5.27;;;4.77;;
211;SDS011;16228;48.800;9.002;2022-12-07T12:12:33;5.27;;;4.77;;
211;SDS011;16228;48.800;9.002;2022-12-07T12:15:18;6.93;;;5.40;;
211;SDS011;16228;48.800;9.002;2022-12-07T12:17:59;6.30;;;5.27;;
211;SDS011;16228;48.800;9.002;2022-12-07T12:20:53;7.33;;;5.17;;
211;SDS011;16228;48.800;9.002;2022-12-07T12:23:23;5.63;;;4.70;;
211;SDS011;16228;48.800;9.002;2022-12-07T12:25:59;4.73;;;4.30;;
211;SDS011;16228;48.800;9.002;2022-12-07T12:28:29;5.87;;;4.83;;
211;SDS011;16228;48.800;9.002;2022-12-07T12:31:07;5.00;;;4.50;;
211;SDS011;16228;48.800;9.002;2022-12-07T12:33:38;7.97;;;6.20;;
211;SDS011;16228;48.800;9.002;2022-12-07T12:36:18;5.37;;;4.23;;
211;SDS011;16228;48.800;9.002;2022-12-07T12:39:08;7.10;;;4.67;;
211;SDS011;16228;48.800;9.002;2022-12-07T12:41:57;5.53;;;4.97;;
211;SDS011;16228;48.800;9.002;2022-12-07T12:44:40;5.77;;;5.00;;
211;SDS011;16228;48.800;9.002;2022-12-07T12:50:25;4.40;;;4.00;;
211;SDS011;16228;48.800;9.002;2022-12-07T12:53:11;4.60;;;4.10;;
211;SDS011;16228;48.800;9.002;2022-12-07T12:55:50;4.50;;;3.93;;
211;SDS011;16228;48.800;9.002;2022-12-07T12:58:41;4.87;;;4.37;;
211;SDS011;16228;48.800;9.002;2022-12-07T13:04:17;5.60;;;4.10;;
211;SDS011;16228;48.800;9.002;2022-12-07T13:06:50;4.43;;;3.73;;
211;SDS011;16228;48.800;9.002;2022-12-07T13:09:20;4.73;;;3.33;;
211;SDS011;16228;48.800;9.002;2022-12-07T13:11:55;5.13;;;3.83;;
211;SDS011;16228;48.800;9.002;2022-12-07T13:14:38;4.73;;;3.80;;
211;SDS011;16228;48.800;9.002;2022-12-07T13:23:27;4.70;;;3.70;;
211;SDS011;16228;48.800;9.002;2022-12-07T13:26:12;3.90;;;3.40;;
211;SDS011;16228;48.800;9.002;2022-12-07T13:28:43;4.53;;;3.70;;
211;SDS011;16228;48.800;9.002;2022-12-07T13:31:31;4.53;;;3.70;;
211;SDS011;16228;48.800;9.002;2022-12-07T13:34:01;4.70;;;3.80;;
211;SDS011;16228;48.800;9.002;2022-12-07T13:36:30;4.30;;;3.90;;
211;SDS011;16228;48.800;9.002;2022-12-07T13:39:10;6.67;;;4.57;;
211;SDS011;16228;48.800;9.002;2022-12-07T13:41:48;4.63;;;3.63;;
211;SDS011;16228;48.800;9.002;2022-12-07T13:44:18;4.17;;;3.63;;
211;SDS011;16228;48.800;9.002;2022-12-07T13:46:48;7.80;;;6.47;;
211;SDS011;16228;48.800;9.002;2022-12-07T13:49:26;9.70;;;7.80;;
211;SDS011;16228;48.800;9.002;2022-12-07T13:51:56;71.47;;;9.60;;
211;SDS011;16228;48.800;9.002;2022-12-07T13:54:43;8.37;;;7.47;;
211;SDS011;16228;48.800;9.002;2022-12-07T13:57:12;9.80;;;7.90;;
211;SDS011;16228;48.800;9.002;2022-12-07T13:59:40;8.00;;;5.60;;
211;SDS011;16228;48.800;9.002;2022-12-07T14:02:16;8.53;;;7.30;;
211;SDS011;16228;48.800;9.002;2022-12-07T14:04:47;7.57;;;6.53;;
211;SDS011;16228;48.800;9.002;2022-12-07T14:07:22;6.93;;;5.27;;
211;SDS011;16228;48.800;9.002;2022-12-07T14:09:58;5.23;;;4.73;;
211;SDS011;16228;48.800;9.002;2022-12-07T14:12:29;6.53;;;4.60;;
211;SDS011;16228;48.800;9.002;2022-12-07T14:14:57;4.87;;;4.37;;
211;SDS011;16228;48.800;9.002;2022-12-07T14:17:26;6.87;;;5.23;;
211;SDS011;16228;48.800;9.002;2022-12-07T14:19:55;6.93;;;5.27;;
211;SDS011;16228;48.800;9.002;2022-12-07T14:22:33;6.57;;;5.43;;
211;SDS011;16228;48.800;9.002;2022-12-07T14:25:09;5.93;;;5.30;;
211;SDS011;16228;48.800;9.002;2022-12-07T14:27:51;7.93;;;5.73;;
211;SDS011;16228;48.800;9.002;2022-12-07T14:30:22;7.57;;;6.00;;
211;SDS011;16228;48.800;9.002;2022-12-07T14:32:51;8.17;;;5.63;;
211;SDS011;16228;48.800;9.002;2022-12-07T14:35:20;5.73;;;5.17;;
211;SDS011;16228;48.800;9.002;2022-12-07T14:37:48;6.40;;;5.80;;
211;SDS011;16228;48.800;9.002;2022-12-07T14:40:16;6.47;;;4.67;;
211;SDS011;16228;48.800;9.002;2022-12-07T14:42:45;4.43;;;3.97;;
211;SDS011;16228;48.800;9.002;2022-12-07T14:45:16;5.13;;;4.20;;
211;SDS011;16228;48.800;9.002;2022-12-07T14:47:45;5.33;;;4.83;;
211;SDS011;16228;48.800;9.002;2022-12-07T14:50:12;5.97;;;5.40;;
211;SDS011;16228;48.800;9.002;2022-12-07T14:52:41;5.07;;;4.57;;
211;SDS011;16228;48.800;9.002;2022-12-07T14:55:13;7.10;;;4.90;;
211;SDS011;16228;48.800;9.002;2022-12-07T14:57:45;7.57;;;4.93;;
211;SDS011;16228;48.800;9.002;2022-12-07T15:00:17;5.10;;;4.60;;
211;SDS011;16228;48.800;9.002;2022-12-07T15:02:45;6.80;;;4.80;;
211;SDS011;16228;48.800;9.002;2022-12-07T15:05:14;6.00;;;4.70;;
211;SDS011;16228;48.800;9.002;2022-12-07T15:07:41;7.47;;;5.37;;
211;SDS011;16228;48.800;9.002;2022-12-07T15:10:13;5.17;;;4.53;;
211;SDS011;16228;48.800;9.002;2022-12-07T15:12:44;6.63;;;5.60;;
211;SDS011;16228;48.800;9.002;2022-12-07T15:15:11;5.37;;;4.80;;
211;SDS011;16228;48.800;9.002;2022-12-07T15:17:43;8.90;;;7.00;;
211;SDS011;16228;48.800;9.002;2022-12-07T15:20:11;8.70;;;6.60;;
211;SDS011;16228;48.800;9.002;2022-12-07T15:22:39;10.03;;;7.17;;
211;SDS011;16228;48.800;9.002;2022-12-07T15:25:07;8.87;;;7.30;;
211;SDS011;16228;48.800;9.002;2022-12-07T15:27:34;9.53;;;8.03;;
211;SDS011;16228;48.800;9.002;2022-12-07T15:30:02;8.07;;;7.23;;
211;SDS011;16228;48.800;9.002;2022-12-07T15:32:30;9.13;;;7.60;;
211;SDS011;16228;48.800;9.002;2022-12-07T15:34:58;9.87;;;8.10;;
211;SDS011;16228;48.800;9.002;2022-12-07T15:37:25;10.13;;;8.03;;
211;SDS011;16228;48.800;9.002;2022-12-07T15:39:52;9.83;;;8.13;;
211;SDS011;16228;48.800;9.002;2022-12-07T15:42:19;11.87;;;9.93;;
211;SDS011;16228;48.800;9.002;2022-12-07T15:44:46;10.93;;;8.40;;
211;SDS011;16228;48.800;9.002;2022-12-07T15:47:30;12.73;;;9.83;;